Time,TemperatureF,DewpointF,PressureIn,WindDirection,WindDirectionDegrees,WindSpeedMPH,WindSpeedGustMPH,Humidity,HourlyPrecipIn,Conditions,Clouds,dailyrainin,SoftwareType,DateUTC
2013-04-27 00:01:00,68.7,65.6,29.96,WSW,246,1.2,0.0,90,0.00,,,0.00,WeatherDisplay:10.37,2013-04-27 05:01:00,
2013-04-27 00:06:00,68.7,65.3,29.96,SW,236,4.6,4.6,89,0.00,,,0.00,WeatherDisplay:10.37,2013-04-27 05:06:00,
2013-04-27 00:11:00,68.8,65.4,29.96,NW,321,4.6,4.6,89,0.00,,,0.00,WeatherDisplay:10.37,2013-04-27 05:11:00,
2013-04-27 00:16:00,69.1,65.7,29.97,WNW,283,1.2,0.0,89,0.00,,,0.00,WeatherDisplay:10.37,2013-04-27 05:16:00,
2013-04-27 00:21:00,69.3,65.6,29.97,West,267,0.0,0.1,88,0.00,,,0.00,WeatherDisplay:10.37,2013-04-27 05:21:00,
2013-04-27 00:26:00,69.4,65.7,29.96,South,169,1.2,0.0,88,0.00,,,0.00,WeatherDisplay:10.37,2013-04-27 05:26:00,
2013-04-27 00:31:00,69.4,65.7,29.97,SW,229,2.3,2.3,88,0.00,,,0.00,WeatherDisplay:10.37,2013-04-27 05:31:00,
2013-04-27 00:36:00,69.7,66.0,29.96,West,263,6.0,6.0,88,0.00,,,0.00,WeatherDisplay:10.37,2013-04-27 05:36:00,
2013-04-27 00:41:00,70.0,66.3,29.96,West,274,3.5,3.5,88,0.00,,,0.00,WeatherDisplay:10.37,2013-04-27 05:41:00,
2013-04-27 00:46:00,70.4,66.3,29.96,SW,236,6.9,6.9,87,0.00,,,0.00,WeatherDisplay:10.37,2013-04-27 05:46:00,
2013-04-27 00:51:00,70.6,66.2,29.96,WSW,240,5.8,5.8,86,0.00,,,0.00,WeatherDisplay:10.37,2013-04-27 05:51:00,
2013-04-27 00:56:00,70.7,66.3,29.96,WSW,250,4.6,4.6,86,0.00,,,0.00,WeatherDisplay:10.37,2013-04-27 05:56:00,
2013-04-27 01:01:00,70.9,66.5,29.96,West,264,5.8,5.8,86,0.00,,,0.00,WeatherDisplay:10.37,2013-04-27 06:01:00,
2013-04-27 01:06:00,71.0,66.6,29.96,WSW,243,6.0,6.0,86,0.00,,,0.00,WeatherDisplay:10.37,2013-04-27 06:06:00,
2013-04-27 01:11:00,71.0,66.3,29.96,WSW,240,3.5,3.5,85,0.00,,,0.00,WeatherDisplay:10.37,2013-04-27 06:11:00,
2013-04-27 01:16:00,71.0,66.6,29.96,WNW,292,5.8,5.8,86,0.00,,,0.00,WeatherDisplay:10.37,2013-04-27 06:16:00,
2013-04-27 01:21:00,71.0,66.3,29.96,WSW,243,2.3,2.3,85,0.00,,,0.00,WeatherDisplay:10.37,2013-04-27 06:21:00,
2013-04-27 01:26:00,70.9,66.5,29.96,South,181,4.0,4.0,86,0.00,,,0.00,WeatherDisplay:10.37,2013-04-27 06:26:00,
2013-04-27 01:31:00,70.8,66.1,29.96,SW,226,3.5,3.5,85,0.00,,,0.00,WeatherDisplay:10.37,2013-04-27 06:31:00,
2013-04-27 01:36:00,70.7,66.3,29.97,West,264,1.2,1.2,86,0.00,,,0.00,WeatherDisplay:10.37,2013-04-27 06:36:00,
2013-04-27 01:41:00,70.7,66.3,29.97,WSW,246,1.2,1.2,86,0.00,,,0.00,WeatherDisplay:10.37,2013-04-27 06:41:00,
2013-04-27 01:46:00,70.8,66.4,29.97,NW,322,3.5,3.5,86,0.00,,,0.00,WeatherDisplay:10.37,2013-04-27 06:46:00,
2013-04-27 01:51:00,70.9,66.5,29.97,WSW,254,2.3,2.3,86,0.00,,,0.00,WeatherDisplay:10.37,2013-04-27 06:51:00,
2013-04-27 01:55:00,66.8,56.7,30.09,North,2,3.0,9.0,70,0.00,CLR,,0.00,WeatherDisplay:10.37,2013-04-27 06:55:00,
2013-04-27 01:56:00,71.0,66.6,29.98,West,259,6.9,6.9,86,0.00,,,0.00,WeatherDisplay:10.37,2013-04-27 06:56:00,
2013-04-27 02:00:00,66.3,57.0,30.09,North,4,2.0,7.0,72,0.00,CLR,,0.00,WeatherDisplay:10.37,2013-04-27 07:00:00,
2013-04-27 02:01:00,71.1,66.7,29.99,NW,307,3.5,3.5,86,0.00,,,0.00,WeatherDisplay:10.37,2013-04-27 07:01:00,
2013-04-27 02:05:00,66.9,56.4,30.09,NNW,345,3.0,7.0,69,0.00,CLR,,0.00,WeatherDisplay:10.37,2013-04-27 07:05:00,
2013-04-27 02:06:00,71.3,66.6,29.99,SW,236,5.8,5.8,85,0.00,,,0.00,WeatherDisplay:10.37,2013-04-27 07:06:00,
2013-04-27 02:10:00,66.8,56.3,30.09,WNW,298,2.0,7.0,69,0.00,CLR,,0.00,WeatherDisplay:10.37,2013-04-27 07:10:00,
2013-04-27 02:11:00,71.5,66.8,29.99,SW,233,4.6,4.6,85,0.00,,,0.00,WeatherDisplay:10.37,2013-04-27 07:11:00,
2013-04-27 02:15:00,67.1,57.4,30.08,WNW,300,3.0,8.0,71,0.00,CLR,,0.00,WeatherDisplay:10.37,2013-04-27 07:15:00,
2013-04-27 02:16:00,71.7,66.9,29.99,SW,233,9.2,9.2,85,0.00,,,0.00,WeatherDisplay:10.37,2013-04-27 07:16:00,
2013-04-27 02:20:00,67.5,57.0,30.08,North,354,6.0,10.0,69,0.00,CLR,,0.00,WeatherDisplay:10.37,2013-04-27 07:20:00,
2013-04-27 02:21:00,71.8,66.7,29.99,SW,226,5.8,5.8,84,0.00,,,0.00,WeatherDisplay:10.37,2013-04-27 07:21:00,
2013-04-27 02:25:00,68.0,57.4,30.08,North,357,1.0,6.0,69,0.00,CLR,,0.00,WeatherDisplay:10.37,2013-04-27 07:25:00,
2013-04-27 02:26:00,71.9,66.8,29.99,SW,229,6.0,6.0,84,0.00,,,0.00,WeatherDisplay:10.37,2013-04-27 07:26:00,
2013-04-27 02:30:00,68.6,56.8,30.08,NW,310,5.0,7.0,66,0.00,CLR,,0.00,WeatherDisplay:10.37,2013-04-27 07:30:00,
2013-04-27 02:31:00,72.0,66.9,29.98,West,270,5.8,5.8,84,0.00,,,0.00,WeatherDisplay:10.37,2013-04-27 07:31:00,
2013-04-27 02:35:00,68.9,57.5,30.08,NW,315,2.0,8.0,67,0.00,CLR,,0.00,WeatherDisplay:10.37,2013-04-27 07:35:00,
2013-04-27 02:36:00,71.9,66.8,29.98,ESE,114,4.6,4.6,84,0.00,,,0.00,WeatherDisplay:10.37,2013-04-27 07:36:00,
2013-04-27 02:40:00,69.5,57.2,30.07,NNW,328,1.0,4.0,65,0.00,CLR,,0.00,WeatherDisplay:10.37,2013-04-27 07:40:00,
2013-04-27 02:41:00,71.6,66.8,29.98,SW,236,4.6,4.6,85,0.00,,,0.00,WeatherDisplay:10.37,2013-04-27 07:41:00,
2013-04-27 02:45:00,69.9,57.6,30.07,NNW,336,6.0,10.0,65,0.00,CLR,,0.00,WeatherDisplay:10.37,2013-04-27 07:45:00,
2013-04-27 02:46:00,71.2,66.5,29.97,SSE,159,4.0,4.0,85,0.00,,,0.00,WeatherDisplay:10.37,2013-04-27 07:46:00,
2013-04-27 02:50:00,70.1,57.8,30.07,NNW,328,1.0,4.0,65,0.00,CLR,,0.00,WeatherDisplay:10.37,2013-04-27 07:50:00,
2013-04-27 02:52:00,70.8,66.4,29.97,SE,132,2.3,2.3,86,0.00,,,0.00,WeatherDisplay:10.37,2013-04-27 07:52:00,
2013-04-27 02:55:00,70.1,56.9,30.07,WNW,289,1.0,4.0,63,0.00,CLR,,0.00,WeatherDisplay:10.37,2013-04-27 07:55:00,
2013-04-27 02:57:00,70.5,66.4,29.97,SE,136,3.5,4.4,87,0.00,,,0.00,WeatherDisplay:10.37,2013-04-27 07:57:00,
2013-04-27 03:00:00,69.8,57.1,30.07,West,274,1.0,6.0,64,0.00,CLR,,0.00,WeatherDisplay:10.37,2013-04-27 08:00:00,
2013-04-27 03:02:00,70.4,66.3,29.97,West,272,4.0,4.0,87,0.00,,,0.00,WeatherDisplay:10.37,2013-04-27 08:02:00,
2013-04-27 03:05:00,70.1,57.4,30.07,WNW,284,2.0,8.0,64,0.00,CLR,,0.00,WeatherDisplay:10.37,2013-04-27 08:05:00,
2013-04-27 03:07:00,70.5,66.4,29.97,WSW,243,5.8,5.8,87,0.00,,,0.00,WeatherDisplay:10.37,2013-04-27 08:07:00,
2013-04-27 03:10:00,70.1,56.9,30.06,West,279,2.0,7.0,63,0.00,CLR,,0.00,WeatherDisplay:10.37,2013-04-27 08:10:00,
2013-04-27 03:12:00,70.5,66.4,29.96,WSW,240,3.5,3.5,87,0.00,,,0.00,WeatherDisplay:10.37,2013-04-27 08:12:00,
2013-04-27 03:15:00,70.6,58.3,30.06,West,278,3.0,9.0,65,0.00,CLR,,0.00,WeatherDisplay:10.37,2013-04-27 08:15:00,
2013-04-27 03:17:00,70.3,66.2,29.96,South,179,4.6,4.6,87,0.00,,,0.00,WeatherDisplay:10.37,2013-04-27 08:17:00,
2013-04-27 03:20:00,70.6,56.9,30.06,NW,306,2.0,7.0,62,0.00,CLR,,0.00,WeatherDisplay:10.37,2013-04-27 08:20:00,
2013-04-27 03:22:00,70.1,66.0,29.96,SSW,211,3.5,3.5,87,0.00,,,0.00,WeatherDisplay:10.37,2013-04-27 08:22:00,
2013-04-27 03:25:00,71.0,58.6,30.06,NNW,327,2.0,7.0,65,0.00,CLR,,0.00,WeatherDisplay:10.37,2013-04-27 08:25:00,
2013-04-27 03:27:00,70.0,66.3,29.96,SSW,195,4.0,4.0,88,0.00,,,0.00,WeatherDisplay:10.37,2013-04-27 08:27:00,
2013-04-27 03:30:00,71.2,57.1,30.06,NNW,346,7.0,10.0,61,0.00,CLR,,0.00,WeatherDisplay:10.37,2013-04-27 08:30:00,
2013-04-27 03:32:00,69.9,66.2,29.96,WSW,253,3.5,3.5,88,0.00,,,0.00,WeatherDisplay:10.37,2013-04-27 08:32:00,
2013-04-27 03:35:00,70.6,57.8,30.05,North,10,5.0,10.0,64,0.00,CLR,,0.00,WeatherDisplay:10.37,2013-04-27 08:35:00,
2013-04-27 03:37:00,69.8,66.1,29.96,West,278,3.5,3.5,88,0.00,,,0.00,WeatherDisplay:10.37,2013-04-27 08:37:00,
2013-04-27 03:40:00,70.7,58.4,30.05,NNE,31,2.0,5.0,65,0.00,CLR,,0.00,WeatherDisplay:10.37,2013-04-27 08:40:00,
2013-04-27 03:42:00,69.7,66.0,29.96,WNW,288,3.5,3.5,88,0.00,,,0.00,WeatherDisplay:10.37,2013-04-27 08:42:00,
2013-04-27 03:47:00,69.5,66.1,29.97,West,269,3.5,3.5,89,0.00,,,0.00,WeatherDisplay:10.37,2013-04-27 08:47:00,
2013-04-27 03:52:00,69.4,66.0,29.96,SW,231,3.0,3.0,89,0.00,,,0.00,WeatherDisplay:10.37,2013-04-27 08:52:00,
2013-04-27 03:57:00,69.2,65.8,29.96,WSW,242,1.2,1.2,89,0.00,,,0.00,WeatherDisplay:10.37,2013-04-27 08:57:00,
2013-04-27 04:02:00,69.1,65.7,29.96,WSW,248,3.5,3.5,89,0.00,,,0.00,WeatherDisplay:10.37,2013-04-27 09:02:00,
2013-04-27 04:07:00,69.0,65.9,29.96,West,267,2.3,2.3,90,0.00,,,0.00,WeatherDisplay:10.37,2013-04-27 09:07:00,
2013-04-27 04:12:00,68.8,65.7,29.96,SW,236,2.3,2.3,90,0.00,,,0.00,WeatherDisplay:10.37,2013-04-27 09:12:00,
2013-04-27 04:17:00,68.6,65.5,29.96,SW,221,1.2,0.0,90,0.00,,,0.00,WeatherDisplay:10.37,2013-04-27 09:17:00,
2013-04-27 04:22:00,68.3,65.3,29.95,WSW,249,1.2,1.2,90,0.00,,,0.00,WeatherDisplay:10.37,2013-04-27 09:22:00,
2013-04-27 04:27:00,68.1,65.1,29.95,SW,225,1.2,1.2,90,0.00,,,0.00,WeatherDisplay:10.37,2013-04-27 09:27:00,
2013-04-27 04:32:00,67.8,65.1,29.95,SW,222,1.2,0.0,91,0.00,,,0.00,WeatherDisplay:10.37,2013-04-27 09:32:00,
2013-04-27 04:37:00,67.5,64.8,29.95,SE,142,1.2,1.2,91,0.00,,,0.00,WeatherDisplay:10.37,2013-04-27 09:37:00,
2013-04-27 04:42:00,67.2,64.5,29.95,West,262,0.0,0.0,91,0.00,,,0.00,WeatherDisplay:10.37,2013-04-27 09:42:00,
2013-04-27 04:47:00,67.1,64.7,29.95,South,169,0.0,0.0,92,0.00,,,0.00,WeatherDisplay:10.37,2013-04-27 09:47:00,
2013-04-27 04:52:00,66.9,64.8,29.95,SSW,197,4.0,4.0,93,0.00,,,0.00,WeatherDisplay:10.37,2013-04-27 09:52:00,
2013-04-27 04:57:00,66.9,64.5,29.95,South,172,1.2,1.2,92,0.00,,,0.00,WeatherDisplay:10.37,2013-04-27 09:57:00,
2013-04-27 05:02:00,66.8,64.7,29.95,WSW,237,1.2,1.2,93,0.00,,,0.00,WeatherDisplay:10.37,2013-04-27 10:02:00,
2013-04-27 05:07:00,66.6,64.5,29.95,South,169,0.0,0.0,93,0.00,,,0.00,WeatherDisplay:10.37,2013-04-27 10:07:00,
2013-04-27 05:12:00,66.6,64.5,29.95,SE,141,3.5,3.5,93,0.00,,,0.00,WeatherDisplay:10.37,2013-04-27 10:12:00,
2013-04-27 05:17:00,66.6,64.5,29.95,West,263,3.5,3.5,93,0.00,,,0.00,WeatherDisplay:10.37,2013-04-27 10:17:00,
2013-04-27 05:22:00,66.7,64.9,29.95,West,263,3.5,3.5,94,0.00,,,0.00,WeatherDisplay:10.37,2013-04-27 10:22:00,
2013-04-27 05:27:00,66.8,65.0,29.95,West,273,3.5,3.5,94,0.00,,,0.00,WeatherDisplay:10.37,2013-04-27 10:27:00,
2013-04-27 05:32:00,66.8,65.0,29.95,WSW,246,2.3,2.3,94,0.00,,,0.00,WeatherDisplay:10.37,2013-04-27 10:32:00,
2013-04-27 05:37:00,66.8,65.0,29.95,WSW,240,1.2,1.2,94,0.00,,,0.00,WeatherDisplay:10.37,2013-04-27 10:37:00,
2013-04-27 05:42:00,66.8,65.0,29.95,South,191,1.2,1.2,94,0.00,,,0.00,WeatherDisplay:10.37,2013-04-27 10:42:00,
2013-04-27 05:47:00,66.8,65.0,29.96,WSW,238,2.3,2.3,94,0.00,,,0.00,WeatherDisplay:10.37,2013-04-27 10:47:00,
2013-04-27 05:52:00,66.8,65.0,29.96,SW,226,2.3,2.3,94,0.00,,,0.00,WeatherDisplay:10.37,2013-04-27 10:52:00,
2013-04-27 05:57:00,66.8,65.0,29.96,WSW,252,3.5,3.5,94,0.00,,,0.00,WeatherDisplay:10.37,2013-04-27 10:57:00,
2013-04-27 06:02:00,66.7,64.9,29.96,South,169,1.2,1.3,94,0.00,,,0.00,WeatherDisplay:10.37,2013-04-27 11:02:00,
2013-04-27 06:08:00,66.7,64.9,29.96,WSW,249,2.3,2.3,94,0.00,,,0.00,WeatherDisplay:10.37,2013-04-27 11:08:00,
2013-04-27 06:13:00,66.8,65.0,29.97,WSW,250,1.0,1.0,94,0.00,,,0.00,WeatherDisplay:10.37,2013-04-27 11:13:00,
2013-04-27 06:18:00,66.8,65.0,29.97,WSW,250,2.3,2.3,94,0.00,,,0.00,WeatherDisplay:10.37,2013-04-27 11:18:00,
2013-04-27 06:23:00,66.9,65.1,29.97,SE,142,1.2,1.2,94,0.00,,,0.00,WeatherDisplay:10.37,2013-04-27 11:23:00,
2013-04-27 06:28:00,67.0,65.2,29.97,WSW,243,1.2,1.2,94,0.00,,,0.00,WeatherDisplay:10.37,2013-04-27 11:28:00,
2013-04-27 06:33:00,67.1,65.3,29.98,WSW,247,1.2,1.2,94,0.00,,,0.00,WeatherDisplay:10.37,2013-04-27 11:33:00,
2013-04-27 06:38:00,67.1,65.3,29.98,WSW,250,1.2,1.2,94,0.00,,,0.00,WeatherDisplay:10.37,2013-04-27 11:38:00,
2013-04-27 06:43:00,67.2,65.4,29.99,NW,312,4.6,4.6,94,0.00,,,0.00,WeatherDisplay:10.37,2013-04-27 11:43:00,
2013-04-27 06:48:00,66.9,63.9,29.99,WNW,297,8.1,8.1,90,0.00,,,0.00,WeatherDisplay:10.37,2013-04-27 11:48:00,
2013-04-27 06:53:00,66.5,62.2,29.99,WNW,297,6.9,6.9,86,0.00,,,0.00,WeatherDisplay:10.37,2013-04-27 11:53:00,
2013-04-27 06:58:00,66.0,60.3,30.00,WNW,284,10.4,10.4,82,0.00,,,0.00,WeatherDisplay:10.37,2013-04-27 11:58:00,
2013-04-27 07:03:00,65.6,60.0,30.00,WNW,284,5.8,5.8,82,0.00,,,0.00,WeatherDisplay:10.37,2013-04-27 12:03:00,
2013-04-27 07:08:00,65.0,59.0,30.01,NW,307,6.9,6.9,81,0.00,,,0.00,WeatherDisplay:10.37,2013-04-27 12:08:00,
2013-04-27 07:13:00,64.5,58.5,30.01,WNW,285,3.5,3.5,81,0.00,,,0.00,WeatherDisplay:10.37,2013-04-27 12:13:00,
2013-04-27 07:18:00,64.0,58.4,30.02,North,351,8.0,8.0,82,0.00,,,0.00,WeatherDisplay:10.37,2013-04-27 12:18:00,
2013-04-27 07:23:00,63.5,57.9,30.02,NNW,338,10.4,10.4,82,0.00,,,0.00,WeatherDisplay:10.37,2013-04-27 12:23:00,
2013-04-27 07:28:00,63.1,57.9,30.02,NE,40,3.5,3.5,83,0.00,,,0.00,WeatherDisplay:10.37,2013-04-27 12:28:00,
2013-04-27 07:33:00,62.8,57.9,30.03,WNW,294,9.2,9.2,84,0.00,,,0.00,WeatherDisplay:10.37,2013-04-27 12:33:00,
2013-04-27 07:38:00,62.6,58.0,30.03,WNW,293,6.9,6.9,85,0.00,,,0.00,WeatherDisplay:10.37,2013-04-27 12:38:00,
2013-04-27 07:43:00,62.5,58.3,30.03,West,272,3.5,3.5,86,0.00,,,0.00,WeatherDisplay:10.37,2013-04-27 12:43:00,
2013-04-27 07:48:00,62.5,58.3,30.03,NW,323,3.5,3.5,86,0.00,,,0.00,WeatherDisplay:10.37,2013-04-27 12:48:00,
2013-04-27 07:53:00,62.5,58.3,30.03,NW,309,4.0,4.0,86,0.00,,,0.00,WeatherDisplay:10.37,2013-04-27 12:53:00,
2013-04-27 07:58:00,62.8,58.5,30.04,WNW,300,4.0,4.0,86,0.00,,,0.00,WeatherDisplay:10.37,2013-04-27 12:58:00,
2013-04-27 08:03:00,63.0,58.7,30.04,WNW,286,3.5,3.5,86,0.00,CLR,,0.00,WeatherDisplay:10.37,2013-04-27 13:03:00,
2013-04-27 08:08:00,63.3,59.0,30.04,NW,320,6.9,6.9,86,0.00,CLR,,0.00,WeatherDisplay:10.37,2013-04-27 13:08:00,
2013-04-27 08:13:00,63.5,59.2,30.04,NNW,335,7.0,7.0,86,0.00,CLR,,0.00,WeatherDisplay:10.37,2013-04-27 13:13:00,
2013-04-27 08:18:00,63.7,59.1,30.04,NW,312,5.8,5.8,85,0.00,CLR,,0.00,WeatherDisplay:10.37,2013-04-27 13:18:00,
2013-04-27 08:23:00,63.7,59.1,30.04,West,269,3.5,3.5,85,0.00,CLR,,0.00,WeatherDisplay:10.37,2013-04-27 13:23:00,
2013-04-27 08:28:00,63.9,59.3,30.04,North,360,3.5,3.5,85,0.00,CLR,,0.00,WeatherDisplay:10.37,2013-04-27 13:28:00,
2013-04-27 08:33:00,64.0,59.1,30.04,WNW,297,4.6,4.6,84,0.00,CLR,,0.00,WeatherDisplay:10.37,2013-04-27 13:33:00,
2013-04-27 08:38:00,63.9,59.0,30.04,WNW,284,5.8,5.8,84,0.00,CLR,,0.00,WeatherDisplay:10.37,2013-04-27 13:38:00,
2013-04-27 08:43:00,63.6,58.7,30.05,West,259,5.8,5.8,84,0.00,CLR,,0.00,WeatherDisplay:10.37,2013-04-27 13:43:00,
2013-04-27 08:48:00,63.6,59.0,30.05,NW,307,8.0,8.0,85,0.00,CLR,,0.00,WeatherDisplay:10.37,2013-04-27 13:48:00,
2013-04-27 08:53:00,63.7,58.8,30.05,NNW,336,3.5,3.5,84,0.00,CLR,,0.00,WeatherDisplay:10.37,2013-04-27 13:53:00,
2013-04-27 08:58:00,63.8,58.9,30.05,West,280,3.5,3.5,84,0.00,CLR,,0.00,WeatherDisplay:10.37,2013-04-27 13:58:00,
2013-04-27 09:03:00,64.1,59.2,30.05,WSW,240,3.5,3.5,84,0.00,CLR,,0.00,WeatherDisplay:10.37,2013-04-27 14:03:00,
2013-04-27 09:08:00,64.2,58.9,30.05,WNW,292,8.1,8.1,83,0.00,CLR,,0.00,WeatherDisplay:10.37,2013-04-27 14:08:00,
2013-04-27 09:13:00,64.3,59.0,30.05,WNW,295,4.0,4.0,83,0.00,CLR,,0.00,WeatherDisplay:10.37,2013-04-27 14:13:00,
2013-04-27 09:18:00,64.4,58.8,30.05,West,278,4.6,4.6,82,0.00,CLR,,0.00,WeatherDisplay:10.37,2013-04-27 14:18:00,
2013-04-27 09:23:00,64.9,59.3,30.05,ENE,72,1.2,1.2,82,0.00,CLR,,0.00,WeatherDisplay:10.37,2013-04-27 14:23:00,
2013-04-27 09:28:00,65.3,59.0,30.05,West,273,3.5,3.5,80,0.00,CLR,,0.00,WeatherDisplay:10.37,2013-04-27 14:28:00,
2013-04-27 09:33:00,65.3,59.0,30.06,WNW,292,3.5,3.5,80,0.00,CLR,,0.00,WeatherDisplay:10.37,2013-04-27 14:33:00,
2013-04-27 09:38:00,65.8,59.8,30.05,NNW,329,4.6,4.6,81,0.00,CLR,,0.00,WeatherDisplay:10.37,2013-04-27 14:38:00,
2013-04-27 09:43:00,66.2,59.5,30.05,NNW,339,9.2,9.2,79,0.00,CLR,,0.00,WeatherDisplay:10.37,2013-04-27 14:43:00,
2013-04-27 09:48:00,66.4,59.3,30.06,WNW,287,5.8,5.8,78,0.00,CLR,,0.00,WeatherDisplay:10.37,2013-04-27 14:48:00,
2013-04-27 09:53:00,66.4,59.7,30.06,NNE,12,9.2,9.2,79,0.00,CLR,,0.00,WeatherDisplay:10.37,2013-04-27 14:53:00,
2013-04-27 09:58:00,66.5,59.4,30.06,North,359,8.1,8.1,78,0.00,CLR,,0.00,WeatherDisplay:10.37,2013-04-27 14:58:00,
2013-04-27 10:03:00,66.4,59.0,30.06,NNW,343,8.1,8.1,77,0.00,CLR,,0.00,WeatherDisplay:10.37,2013-04-27 15:03:00,
2013-04-27 10:08:00,66.7,59.3,30.06,NW,307,4.6,4.6,77,0.00,CLR,,0.00,WeatherDisplay:10.37,2013-04-27 15:08:00,
2013-04-27 10:13:00,66.7,58.9,30.06,NNW,345,6.9,6.9,76,0.00,CLR,,0.00,WeatherDisplay:10.37,2013-04-27 15:13:00,
2013-04-27 10:19:00,66.4,58.6,30.06,NNE,18,8.1,8.1,76,0.00,CLR,,0.00,WeatherDisplay:10.37,2013-04-27 15:19:00,
2013-04-27 10:24:00,66.0,58.9,30.06,North,351,9.2,9.2,78,0.00,CLR,,0.00,WeatherDisplay:10.37,2013-04-27 15:24:00,
2013-04-27 10:29:00,66.0,58.6,30.06,NW,307,9.2,9.2,77,0.00,CLR,,0.00,WeatherDisplay:10.37,2013-04-27 15:29:00,
2013-04-27 10:34:00,66.1,58.7,30.06,NNE,25,6.9,7.1,77,0.00,CLR,,0.00,WeatherDisplay:10.37,2013-04-27 15:34:00,
2013-04-27 10:39:00,66.4,59.3,30.06,NE,41,10.4,10.4,78,0.00,CLR,,0.00,WeatherDisplay:10.37,2013-04-27 15:39:00,
2013-04-27 10:44:00,67.1,59.6,30.06,NNE,32,5.8,5.8,77,0.00,CLR,,0.00,WeatherDisplay:10.37,2013-04-27 15:44:00,
2013-04-27 10:49:00,67.7,59.1,30.07,NE,41,9.0,9.0,74,0.00,CLR,,0.00,WeatherDisplay:10.37,2013-04-27 15:49:00,
2013-04-27 10:54:00,67.0,58.4,30.07,West,277,11.5,11.5,74,0.00,CLR,,0.00,WeatherDisplay:10.37,2013-04-27 15:54:00,
2013-04-27 10:59:00,66.5,58.3,30.07,WNW,284,9.2,9.2,75,0.00,CLR,,0.00,WeatherDisplay:10.37,2013-04-27 15:59:00,
2013-04-27 11:04:00,66.4,58.2,30.07,NW,312,5.8,5.8,75,0.00,,,0.00,WeatherDisplay:10.37,2013-04-27 16:04:00,
2013-04-27 11:09:00,66.2,58.0,30.08,NW,319,10.4,10.4,75,0.00,,,0.00,WeatherDisplay:10.37,2013-04-27 16:09:00,
2013-04-27 11:14:00,66.2,58.0,30.08,NNW,339,5.8,5.8,75,0.00,,,0.00,WeatherDisplay:10.37,2013-04-27 16:14:00,
2013-04-27 11:19:00,66.0,57.5,30.09,WNW,298,4.6,4.6,74,0.00,,,0.00,WeatherDisplay:10.37,2013-04-27 16:19:00,
2013-04-27 11:24:00,65.9,57.4,30.09,West,274,8.1,8.1,74,0.00,,,0.00,WeatherDisplay:10.37,2013-04-27 16:24:00,
2013-04-27 11:29:00,65.6,57.5,30.10,North,356,4.6,4.6,75,0.00,,,0.00,WeatherDisplay:10.37,2013-04-27 16:29:00,
2013-04-27 11:34:00,65.5,57.0,30.10,WNW,301,3.5,3.5,74,0.00,,,0.00,WeatherDisplay:10.37,2013-04-27 16:34:00,
2013-04-27 11:39:00,65.4,57.3,30.10,West,276,5.8,5.8,75,0.00,,,0.00,WeatherDisplay:10.37,2013-04-27 16:39:00,
2013-04-27 11:44:00,65.2,57.1,30.10,West,262,3.5,3.5,75,0.00,,,0.00,WeatherDisplay:10.37,2013-04-27 16:44:00,
2013-04-27 11:49:00,65.1,57.0,30.10,NW,326,5.8,5.8,75,0.00,,,0.00,WeatherDisplay:10.37,2013-04-27 16:49:00,
2013-04-27 11:54:00,65.2,57.1,30.10,NW,318,3.5,3.5,75,0.00,,,0.00,WeatherDisplay:10.37,2013-04-27 16:54:00,
2013-04-27 11:59:00,65.4,57.3,30.10,WNW,284,11.5,11.5,75,0.00,,,0.00,WeatherDisplay:10.37,2013-04-27 16:59:00,
2013-04-27 12:04:00,65.5,57.0,30.10,North,358,10.4,10.4,74,0.00,CLR,,0.00,WeatherDisplay:10.37,2013-04-27 17:04:00,
2013-04-27 12:09:00,65.6,57.5,30.10,North,7,10.4,10.4,75,0.00,CLR,,0.00,WeatherDisplay:10.37,2013-04-27 17:09:00,
2013-04-27 12:14:00,66.0,57.5,30.10,NNW,338,8.1,8.1,74,0.00,CLR,,0.00,WeatherDisplay:10.37,2013-04-27 17:14:00,
2013-04-27 12:19:00,65.8,57.3,30.10,NNE,32,5.8,5.8,74,0.00,CLR,,0.00,WeatherDisplay:10.37,2013-04-27 17:19:00,
2013-04-27 12:24:00,65.8,57.3,30.10,WSW,252,4.6,4.6,74,0.00,CLR,,0.00,WeatherDisplay:10.37,2013-04-27 17:24:00,
2013-04-27 12:29:00,66.0,57.1,30.10,WNW,284,5.8,5.8,73,0.00,CLR,,0.00,WeatherDisplay:10.37,2013-04-27 17:29:00,
2013-04-27 12:34:00,66.3,56.6,30.10,NNW,339,3.5,3.5,71,0.00,CLR,,0.00,WeatherDisplay:10.37,2013-04-27 17:34:00,
2013-04-27 12:39:00,66.6,56.5,30.09,NW,320,4.6,4.6,70,0.00,CLR,,0.00,WeatherDisplay:10.37,2013-04-27 17:39:00,
2013-04-27 12:44:00,66.9,56.8,30.09,WNW,295,9.2,9.2,70,0.00,CLR,,0.00,WeatherDisplay:10.37,2013-04-27 17:44:00,
2013-04-27 12:49:00,66.7,56.6,30.09,North,11,3.5,3.5,70,0.00,CLR,,0.00,WeatherDisplay:10.37,2013-04-27 17:49:00,
2013-04-27 12:54:00,66.7,56.6,30.09,NNE,19,5.8,5.8,70,0.00,CLR,,0.00,WeatherDisplay:10.37,2013-04-27 17:54:00,
2013-04-27 14:44:00,71.5,58.7,30.05,WNW,295,1.2,1.2,64,0.00,,,0.00,WeatherDisplay:10.37,2013-04-27 19:44:00,
2013-04-27 14:49:00,72.4,58.6,30.04,NNE,28,8.1,8.1,62,0.00,,,0.00,WeatherDisplay:10.37,2013-04-27 19:49:00,
2013-04-27 14:54:00,72.0,57.8,30.04,East,90,4.6,4.6,61,0.00,,,0.00,WeatherDisplay:10.37,2013-04-27 19:54:00,
2013-04-27 14:59:00,72.5,57.8,30.04,WSW,246,8.1,8.1,60,0.00,,,0.00,WeatherDisplay:10.37,2013-04-27 19:59:00,
2013-04-27 15:04:00,72.9,58.2,30.04,NW,310,4.6,4.6,60,0.00,,,0.00,WeatherDisplay:10.37,2013-04-27 20:04:00,
2013-04-27 15:10:00,73.4,58.2,30.03,West,278,3.5,3.5,59,0.00,,,0.00,WeatherDisplay:10.37,2013-04-27 20:10:00,
2013-04-27 15:15:00,73.7,58.9,30.03,NNE,18,6.0,6.0,60,0.00,,,0.00,WeatherDisplay:10.37,2013-04-27 20:15:00,
2013-04-27 15:20:00,73.7,57.5,30.03,NE,34,6.9,6.9,57,0.00,,,0.00,WeatherDisplay:10.37,2013-04-27 20:20:00,
2013-04-27 15:25:00,73.7,58.9,30.03,NNW,335,2.0,2.0,60,0.00,,,0.00,WeatherDisplay:10.37,2013-04-27 20:25:00,
2013-04-27 15:30:00,74.2,57.5,30.02,WSW,246,5.8,5.8,56,0.00,,,0.00,WeatherDisplay:10.37,2013-04-27 20:30:00,
2013-04-27 15:35:00,73.5,57.8,30.02,NNW,345,6.9,6.9,58,0.00,,,0.00,WeatherDisplay:10.37,2013-04-27 20:35:00,
2013-04-27 15:40:00,73.2,58.0,30.02,North,2,3.0,7.0,59,0.00,,,0.00,WeatherDisplay:10.37,2013-04-27 20:40:00,
2013-04-27 15:45:00,72.5,57.8,30.01,SE,131,4.6,4.6,60,0.00,,,0.00,WeatherDisplay:10.37,2013-04-27 20:45:00,
2013-04-27 15:50:00,72.3,58.5,30.01,NW,321,4.6,4.6,62,0.00,,,0.00,WeatherDisplay:10.37,2013-04-27 20:50:00,
2013-04-27 15:55:00,72.9,58.2,30.01,NNE,19,1.0,15.0,60,0.00,,,0.00,WeatherDisplay:10.37,2013-04-27 20:55:00,
2013-04-27 16:00:00,72.9,58.2,30.01,ESE,104,3.5,3.5,60,0.00,,,0.00,WeatherDisplay:10.37,2013-04-27 21:00:00,
2013-04-27 16:05:00,73.3,58.6,30.01,North,11,2.0,6.0,60,0.00,,,0.00,WeatherDisplay:10.37,2013-04-27 21:05:00,
2013-04-27 16:10:00,73.6,57.9,30.01,NW,325,5.0,15.0,58,0.00,,,0.00,WeatherDisplay:10.37,2013-04-27 21:10:00,
2013-04-27 16:15:00,73.2,57.5,30.01,NNE,12,5.8,5.8,58,0.00,,,0.00,WeatherDisplay:10.37,2013-04-27 21:15:00,
2013-04-27 16:20:00,73.5,58.3,30.00,NNW,346,2.0,15.0,59,0.00,,,0.00,WeatherDisplay:10.37,2013-04-27 21:20:00,
2013-04-27 16:25:00,74.2,58.0,30.00,NW,311,0.0,15.0,57,0.00,,,0.00,WeatherDisplay:10.37,2013-04-27 21:25:00,
2013-04-27 16:30:00,74.5,58.3,30.00,ESE,109,3.0,15.0,57,0.00,,,0.00,WeatherDisplay:10.37,2013-04-27 21:30:00,
2013-04-27 16:35:00,73.9,58.7,30.00,NNE,24,5.8,5.8,59,0.00,,,0.00,WeatherDisplay:10.37,2013-04-27 21:35:00,
2013-04-27 16:40:00,73.4,57.7,29.99,NE,34,1.0,15.0,58,0.00,,,0.00,WeatherDisplay:10.37,2013-04-27 21:40:00,
2013-04-27 16:45:00,73.2,57.0,29.99,NNE,30,5.0,15.0,57,0.00,,,0.00,WeatherDisplay:10.37,2013-04-27 21:45:00,
2013-04-27 16:50:00,73.2,57.1,30.00,NNE,26,8.1,8.1,57,0.00,,,0.00,WeatherDisplay:10.37,2013-04-27 21:50:00,
2013-04-27 16:55:00,73.6,58.4,29.99,NW,319,5.8,5.8,59,0.00,,,0.00,WeatherDisplay:10.37,2013-04-27 21:55:00,
2013-04-27 17:00:00,74.1,57.9,30.00,NE,36,2.3,2.3,57,0.00,,,0.00,WeatherDisplay:10.37,2013-04-27 22:00:00,
2013-04-27 17:05:00,74.0,58.3,29.99,East,94,2.3,2.3,58,0.00,,,0.00,WeatherDisplay:10.37,2013-04-27 22:05:00,
2013-04-27 17:10:00,73.9,58.7,29.99,NE,49,1.0,15.0,59,0.00,,,0.00,WeatherDisplay:10.37,2013-04-27 22:10:00,
2013-04-27 17:15:00,73.7,58.5,29.99,NE,34,1.0,15.0,59,0.00,,,0.00,WeatherDisplay:10.37,2013-04-27 22:15:00,
2013-04-27 17:20:00,74.2,58.0,29.99,NNW,336,2.0,15.0,57,0.00,,,0.00,WeatherDisplay:10.37,2013-04-27 22:20:00,
2013-04-27 17:25:00,74.8,58.5,29.99,WNW,297,3.5,3.5,57,0.00,,,0.00,WeatherDisplay:10.37,2013-04-27 22:25:00,
2013-04-27 17:30:00,75.3,58.5,29.99,NNE,28,3.5,3.5,56,0.00,,,0.00,WeatherDisplay:10.37,2013-04-27 22:30:00,
2013-04-27 17:35:00,74.9,58.6,29.98,North,7,6.9,6.9,57,0.00,,,0.00,WeatherDisplay:10.37,2013-04-27 22:35:00,
2013-04-27 17:40:00,75.0,58.2,29.98,NNW,347,3.5,3.5,56,0.00,,,0.00,WeatherDisplay:10.37,2013-04-27 22:40:00,
2013-04-27 17:45:00,74.9,58.6,29.98,NW,318,3.5,3.5,57,0.00,,,0.00,WeatherDisplay:10.37,2013-04-27 22:45:00,
2013-04-27 17:50:00,75.3,58.5,29.98,NNW,347,4.0,4.4,56,0.00,,,0.00,WeatherDisplay:10.37,2013-04-27 22:50:00,
2013-04-27 17:55:00,75.3,58.0,29.98,WNW,283,4.6,4.6,55,0.00,,,0.00,WeatherDisplay:10.37,2013-04-27 22:55:00,
2013-04-27 18:00:00,75.5,57.2,29.98,West,276,3.5,3.5,53,0.00,,,0.00,WeatherDisplay:10.37,2013-04-27 23:00:00,
2013-04-27 18:05:00,75.7,58.4,29.98,NNE,19,5.0,5.0,55,0.00,,,0.00,WeatherDisplay:10.37,2013-04-27 23:05:00,
2013-04-27 18:10:00,75.2,58.4,29.99,West,269,3.5,3.5,56,0.00,,,0.00,WeatherDisplay:10.37,2013-04-27 23:10:00,
2013-04-27 18:15:00,75.7,58.4,29.98,West,267,3.5,3.5,55,0.00,,,0.00,WeatherDisplay:10.37,2013-04-27 23:15:00,
2013-04-27 18:20:00,76.1,58.2,29.98,North,7,1.2,0.0,54,0.00,,,0.00,WeatherDisplay:10.37,2013-04-27 23:20:00,
2013-04-27 18:25:00,76.5,58.6,29.98,North,356,0.0,15.0,54,0.00,,,0.00,WeatherDisplay:10.37,2013-04-27 23:25:00,
2013-04-27 18:30:00,75.6,58.3,29.98,North,6,2.3,2.3,55,0.00,,,0.00,WeatherDisplay:10.37,2013-04-27 23:30:00,
2013-04-27 18:35:00,75.1,57.8,29.98,NE,35,2.0,2.0,55,0.00,,,0.00,WeatherDisplay:10.37,2013-04-27 23:35:00,
2013-04-27 18:40:00,74.7,58.0,29.98,NNE,32,1.0,15.0,56,0.00,,,0.00,WeatherDisplay:10.37,2013-04-27 23:40:00,
2013-04-27 18:45:00,74.4,58.2,29.98,NNW,332,2.0,2.0,57,0.00,,,0.00,WeatherDisplay:10.37,2013-04-27 23:45:00,
2013-04-27 18:50:00,74.9,59.1,29.98,NNE,29,0.0,0.2,58,0.00,,,0.00,WeatherDisplay:10.37,2013-04-27 23:50:00,
2013-04-27 18:55:00,75.1,58.3,29.98,North,8,1.0,15.0,56,0.00,,,0.00,WeatherDisplay:10.37,2013-04-27 23:55:00,
2013-04-27 19:00:00,74.5,57.3,29.98,NNE,12,3.5,3.5,55,0.00,,,0.00,WeatherDisplay:10.37,2013-04-28 00:00:00,
2013-04-27 19:05:00,73.9,56.7,29.98,North,356,3.5,3.5,55,0.00,,,0.00,WeatherDisplay:10.37,2013-04-28 00:05:00,
2013-04-27 19:10:00,73.7,56.5,29.98,North,353,2.0,15.0,55,0.00,,,0.00,WeatherDisplay:10.37,2013-04-28 00:10:00,
2013-04-27 19:15:00,73.1,56.5,29.97,NNE,26,4.0,4.0,56,0.00,,,0.00,WeatherDisplay:10.37,2013-04-28 00:15:00,
2013-04-27 19:20:00,72.7,56.6,29.97,NNW,333,4.0,4.0,57,0.00,,,0.00,WeatherDisplay:10.37,2013-04-28 00:20:00,
2013-04-27 19:25:00,72.2,56.1,29.97,NW,321,3.5,3.5,57,0.00,,,0.00,WeatherDisplay:10.37,2013-04-28 00:25:00,
2013-04-27 19:30:00,71.8,56.2,29.96,North,349,3.5,3.5,58,0.00,,,0.00,WeatherDisplay:10.37,2013-04-28 00:30:00,
2013-04-27 19:35:00,71.3,56.7,29.96,North,355,0.0,15.0,60,0.00,,,0.00,WeatherDisplay:10.37,2013-04-28 00:35:00,
2013-04-27 19:40:00,70.8,57.6,29.96,NE,44,2.0,2.0,63,0.00,,,0.00,WeatherDisplay:10.37,2013-04-28 00:40:00,
2013-04-27 19:45:00,70.1,56.9,29.95,North,3,1.0,15.0,63,0.00,,,0.00,WeatherDisplay:10.37,2013-04-28 00:45:00,
2013-04-27 19:50:00,69.6,57.3,29.95,NNE,16,2.0,15.0,65,0.00,,,0.00,WeatherDisplay:10.37,2013-04-28 00:50:00,
2013-04-27 19:55:00,69.2,56.9,29.95,NNE,24,3.5,3.5,65,0.00,,,0.00,WeatherDisplay:10.37,2013-04-28 00:55:00,
2013-04-27 20:00:00,68.7,56.9,29.96,NNE,20,0.0,15.0,66,0.00,,,0.00,WeatherDisplay:10.37,2013-04-28 01:00:00,
2013-04-27 20:05:00,68.0,56.7,29.96,NNE,19,0.0,0.0,67,0.00,,,0.00,WeatherDisplay:10.37,2013-04-28 01:05:00,
2013-04-27 20:10:00,67.1,56.6,29.96,NNE,18,0.0,0.0,69,0.00,,,0.00,WeatherDisplay:10.37,2013-04-28 01:10:00,
2013-04-27 20:15:00,66.2,56.1,29.96,NNE,18,0.0,0.0,70,0.00,,,0.00,WeatherDisplay:10.37,2013-04-28 01:15:00,
2013-04-27 20:20:00,65.5,56.3,29.95,NNE,17,0.0,15.0,72,0.00,,,0.00,WeatherDisplay:10.37,2013-04-28 01:20:00,
2013-04-27 20:25:00,64.8,55.9,29.95,NNE,17,1.2,0.0,73,0.00,,,0.00,WeatherDisplay:10.37,2013-04-28 01:25:00,
2013-04-27 20:30:00,64.2,55.8,29.95,NNE,17,0.0,15.0,74,0.00,,,0.00,WeatherDisplay:10.37,2013-04-28 01:30:00,
2013-04-27 20:35:00,63.7,56.0,29.95,NNE,17,0.0,0.0,76,0.00,,,0.00,WeatherDisplay:10.37,2013-04-28 01:35:00,
2013-04-27 20:40:00,63.2,55.9,29.95,NNE,17,0.0,15.0,77,0.00,,,0.00,WeatherDisplay:10.37,2013-04-28 01:40:00,
2013-04-27 20:45:00,62.6,55.9,29.95,NNE,17,0.0,15.0,79,0.00,,,0.00,WeatherDisplay:10.37,2013-04-28 01:45:00,
2013-04-27 20:50:00,61.9,56.0,29.95,NNE,18,0.0,0.0,81,0.00,,,0.00,WeatherDisplay:10.37,2013-04-28 01:50:00,
2013-04-27 20:55:00,61.5,55.6,29.95,NNE,17,0.0,15.0,81,0.00,,,0.00,WeatherDisplay:10.37,2013-04-28 01:55:00,
2013-04-27 21:00:00,61.0,55.5,29.96,NNE,18,0.0,15.0,82,0.00,,,0.00,WeatherDisplay:10.37,2013-04-28 02:00:00,
2013-04-27 21:05:00,60.5,55.6,29.96,NNE,18,0.0,0.0,84,0.00,,,0.00,WeatherDisplay:10.37,2013-04-28 02:05:00,
2013-04-27 21:10:00,59.9,55.1,29.96,NNE,18,0.0,0.0,84,0.00,,,0.00,WeatherDisplay:10.37,2013-04-28 02:10:00,
2013-04-27 21:15:00,59.3,54.8,29.97,NNE,17,0.0,0.0,85,0.00,,,0.00,WeatherDisplay:10.37,2013-04-28 02:15:00,
2013-04-27 21:20:00,58.9,54.7,29.97,NNE,18,0.0,0.0,86,0.00,,,0.00,WeatherDisplay:10.37,2013-04-28 02:20:00,
2013-04-27 21:25:00,58.5,54.6,29.97,NNE,18,0.0,0.0,87,0.00,,,0.00,WeatherDisplay:10.37,2013-04-28 02:25:00,
2013-04-27 21:30:00,58.1,54.6,29.97,NNE,18,0.0,0.0,88,0.00,,,0.00,WeatherDisplay:10.37,2013-04-28 02:30:00,
2013-04-27 21:35:00,57.8,54.6,29.98,NNE,18,0.0,0.0,89,0.00,,,0.00,WeatherDisplay:10.37,2013-04-28 02:35:00,
2013-04-27 21:40:00,57.6,54.4,29.98,NNE,17,0.0,0.0,89,0.00,,,0.00,WeatherDisplay:10.37,2013-04-28 02:40:00,
2013-04-27 21:45:00,57.5,54.6,29.98,NNE,18,0.0,0.0,90,0.00,,,0.00,WeatherDisplay:10.37,2013-04-28 02:45:00,
2013-04-27 21:50:00,57.4,54.5,29.98,NNE,18,0.0,0.0,90,0.00,,,0.00,WeatherDisplay:10.37,2013-04-28 02:50:00,
2013-04-27 21:55:00,57.3,54.7,29.98,NNE,18,0.0,0.0,91,0.00,,,0.00,WeatherDisplay:10.37,2013-04-28 02:55:00,
2013-04-27 22:00:00,57.2,54.6,29.98,NNE,17,0.0,0.0,91,0.00,,,0.00,WeatherDisplay:10.37,2013-04-28 03:00:00,
2013-04-27 22:05:00,57.0,54.4,29.98,NNE,17,0.0,0.0,91,0.00,,,0.00,WeatherDisplay:10.37,2013-04-28 03:05:00,
2013-04-27 22:10:00,57.0,54.7,29.98,NNE,18,0.0,0.0,92,0.00,,,0.00,WeatherDisplay:10.37,2013-04-28 03:10:00,
2013-04-27 22:15:00,56.9,54.6,29.98,NNE,18,0.0,0.0,92,0.00,,,0.00,WeatherDisplay:10.37,2013-04-28 03:15:00,
2013-04-27 22:20:00,56.8,54.5,29.98,NNE,18,0.0,0.0,92,0.00,,,0.00,WeatherDisplay:10.37,2013-04-28 03:20:00,
2013-04-27 22:25:00,56.5,54.2,29.99,NNE,18,0.0,0.0,92,0.00,,,0.00,WeatherDisplay:10.37,2013-04-28 03:25:00,
2013-04-27 22:30:00,56.3,54.0,29.99,NNE,17,0.0,0.0,92,0.00,,,0.00,WeatherDisplay:10.37,2013-04-28 03:30:00,
2013-04-27 22:35:00,56.1,53.8,29.99,NNE,18,0.0,0.0,92,0.00,,,0.00,WeatherDisplay:10.37,2013-04-28 03:35:00,
2013-04-27 22:40:00,55.9,53.9,29.99,NNE,18,0.0,0.0,93,0.00,,,0.00,WeatherDisplay:10.37,2013-04-28 03:40:00,
2013-04-27 22:45:00,55.7,53.7,29.99,NNE,18,0.0,0.0,93,0.00,,,0.00,WeatherDisplay:10.37,2013-04-28 03:45:00,
2013-04-27 22:50:00,55.5,53.5,29.99,NNE,17,0.0,0.0,93,0.00,,,0.00,WeatherDisplay:10.37,2013-04-28 03:50:00,
2013-04-27 22:55:00,55.7,54.0,29.99,NNE,18,0.0,0.0,94,0.00,,,0.00,WeatherDisplay:10.37,2013-04-28 03:55:00,
2013-04-27 23:00:00,55.6,53.9,29.99,NNE,18,0.0,0.0,94,0.00,,,0.00,WeatherDisplay:10.37,2013-04-28 04:00:00,
2013-04-27 23:01:00,55.6,53.9,29.99,NNE,18,0.0,0.0,94,0.00,,,0.00,WeatherDisplay:10.37,2013-04-28 04:01:00,
2013-04-27 23:02:00,55.6,53.9,29.99,NNE,18,0.0,0.0,94,0.00,,,0.00,WeatherDisplay:10.37,2013-04-28 04:02:00,
2013-04-27 23:07:00,55.3,53.3,29.99,NNE,18,0.0,0.0,93,0.00,,,0.00,WeatherDisplay:10.37,2013-04-28 04:07:00,
2013-04-27 23:12:00,55.2,53.5,29.99,NNE,18,0.0,0.0,94,0.00,,,0.00,WeatherDisplay:10.37,2013-04-28 04:12:00,
2013-04-27 23:17:00,55.0,53.3,29.99,NNE,18,0.0,0.0,94,0.00,,,0.00,WeatherDisplay:10.37,2013-04-28 04:17:00,
2013-04-27 23:22:00,54.8,53.1,29.99,NNE,17,0.0,0.0,94,0.00,,,0.00,WeatherDisplay:10.37,2013-04-28 04:22:00,
2013-04-27 23:27:00,54.7,53.0,29.99,NNE,18,0.0,0.0,94,0.00,,,0.00,WeatherDisplay:10.37,2013-04-28 04:27:00,
2013-04-27 23:32:00,54.4,52.7,29.99,NNE,18,0.0,0.0,94,0.00,,,0.00,WeatherDisplay:10.37,2013-04-28 04:32:00,
2013-04-27 23:37:00,54.3,52.6,29.99,NNE,18,0.0,0.0,94,0.00,,,0.00,WeatherDisplay:10.37,2013-04-28 04:37:00,
2013-04-27 23:42:00,54.5,53.1,29.99,NNE,17,0.0,0.0,95,0.00,,,0.00,WeatherDisplay:10.37,2013-04-28 04:42:00,
2013-04-27 23:47:00,54.4,52.7,29.99,NNE,18,0.0,0.1,94,0.00,,,0.00,WeatherDisplay:10.37,2013-04-28 04:47:00,
2013-04-27 23:52:00,54.5,53.1,29.99,NNE,19,1.2,0.0,95,0.00,,,0.00,WeatherDisplay:10.37,2013-04-28 04:52:00,
2013-04-27 23:57:00,54.5,53.1,29.99,NNE,18,0.0,0.0,95,0.00,,,0.00,WeatherDisplay:10.37,2013-04-28 04:57:00,